createdAt,value
2022-12-12T00:01:23.649Z,93382.38
2022-12-12T00:03:51.128Z,93378.72
2022-12-12T00:06:18.448Z,93386.56
2022-12-12T00:08:45.560Z,93381.31
2022-12-12T00:11:12.469Z,93383.94
2022-12-12T00:13:39.361Z,93380.78
2022-12-12T00:16:07.968Z,93385.00
2022-12-12T00:18:37.021Z,93375.81
2022-12-12T00:21:13.834Z,93381.03
2022-12-12T00:23:40.624Z,93376.34
2022-12-12T00:26:11.880Z,93378.97
2022-12-12T00:28:38.597Z,93381.84
2022-12-12T00:31:05.646Z,93388.38
2022-12-12T00:33:32.489Z,93386.03
2022-12-12T00:35:59.255Z,93382.38
2022-12-12T00:38:25.949Z,93386.56
2022-12-12T00:40:58.043Z,93382.09
2022-12-12T00:43:25.928Z,93381.59
2022-12-12T00:45:53.365Z,93380.53
2022-12-12T00:48:20.971Z,93379.47
2022-12-12T00:50:47.771Z,93372.66
2022-12-12T00:53:14.650Z,93382.09
2022-12-12T00:55:41.429Z,93369.25
2022-12-12T00:58:08.132Z,93380.00
2022-12-12T01:00:35.591Z,93380.00
2022-12-12T01:03:02.256Z,93387.34
2022-12-12T01:05:28.999Z,93390.22
2022-12-12T01:07:55.656Z,93387.59
2022-12-12T01:10:22.396Z,93385.22
2022-12-12T01:12:49.051Z,93388.38
2022-12-12T01:15:16.814Z,93381.56
2022-12-12T01:17:43.656Z,93394.41
2022-12-12T01:20:19.956Z,93393.88
2022-12-12T01:22:46.861Z,93393.34
2022-12-12T01:25:15.197Z,93394.13
2022-12-12T01:27:42.695Z,93396.47
2022-12-12T01:30:12.876Z,93400.94
2022-12-12T01:32:39.516Z,93403.03
2022-12-12T01:35:08.359Z,93393.09
2022-12-12T01:37:36.082Z,93405.66
2022-12-12T01:40:04.027Z,93399.38
2022-12-12T01:42:30.719Z,93405.09
2022-12-12T01:44:57.772Z,93410.34
2022-12-12T01:47:25.964Z,93403.56
2022-12-12T01:49:59.782Z,93406.19
2022-12-12T01:52:48.903Z,93412.47
2022-12-12T01:55:20.033Z,93410.09
2022-12-12T01:57:51.410Z,93409.28
2022-12-12T02:00:19.112Z,93411.91
2022-12-12T02:02:47.390Z,93414.25
2022-12-12T02:05:28.125Z,93413.19
2022-12-12T02:07:55.341Z,93415.31
2022-12-12T02:10:22.002Z,93418.69
2022-12-12T02:12:48.709Z,93414.00
2022-12-12T02:15:15.866Z,93413.50
2022-12-12T02:18:26.099Z,93411.63
2022-12-12T02:20:59.142Z,93409.00
2022-12-12T02:24:03.011Z,93422.91
2022-12-12T02:27:01.407Z,93420.03
2022-12-12T02:29:34.049Z,93414.03
2022-12-12T02:32:12.901Z,93409.31
2022-12-12T02:34:55.585Z,93416.63
2022-12-12T02:37:30.835Z,93413.78
2022-12-12T02:39:57.426Z,93407.50
2022-12-12T02:42:37.205Z,93419.81
2022-12-12T02:45:45.887Z,93428.47
2022-12-12T02:48:33.993Z,93420.06
2022-12-12T02:51:03.618Z,93421.88
2022-12-12T02:53:30.389Z,93418.47
2022-12-12T02:56:04.219Z,93427.63
2022-12-12T02:58:32.435Z,93425.00
2022-12-12T03:01:14.787Z,93424.50
2022-12-12T03:04:15.122Z,93417.16
2022-12-12T03:07:12.413Z,93421.88
2022-12-12T03:10:32.287Z,93413.50
2022-12-12T03:13:10.868Z,93412.19
2022-12-12T03:15:51.549Z,93415.56
2022-12-12T03:18:47.466Z,93418.75
2022-12-12T03:21:53.890Z,93413.47
2022-12-12T03:24:26.601Z,93413.19
2022-12-12T03:27:04.684Z,93412.38
2022-12-12T03:29:36.526Z,93427.31
2022-12-12T03:32:14.082Z,93421.28
2022-12-12T03:34:49.796Z,93414.22
2022-12-12T03:37:29.920Z,93419.22
2022-12-12T03:40:13.933Z,93422.09
2022-12-12T03:42:46.756Z,93419.72
2022-12-12T03:45:23.762Z,93420.78
2022-12-12T03:48:02.010Z,93425.22
2022-12-12T03:50:35.139Z,93414.19
2022-12-12T03:53:37.368Z,93420.44
2022-12-12T03:56:21.630Z,93415.47
2022-12-12T03:59:21.545Z,93414.34
2022-12-12T04:02:00.545Z,93421.16
2022-12-12T04:04:41.749Z,93416.72
2022-12-12T04:07:14.588Z,93420.91
2022-12-12T04:10:03.008Z,93423.75
2022-12-12T04:12:58.603Z,93425.06
2022-12-12T04:15:40.046Z,93428.38
2022-12-12T04:18:30.345Z,93417.91
2022-12-12T04:21:30.881Z,93437.53
2022-12-12T04:24:14.274Z,93428.63
2022-12-12T04:26:47.744Z,93424.38
2022-12-12T04:29:53.764Z,93432.81
2022-12-12T04:32:26.280Z,93439.06
2022-12-12T04:35:05.961Z,93446.13
2022-12-12T04:37:36.170Z,93442.75
2022-12-12T04:40:07.824Z,93449.59
2022-12-12T04:42:40.302Z,93457.41
2022-12-12T04:45:12.422Z,93457.13
2022-12-12T04:47:41.731Z,93458.69
2022-12-12T04:50:10.679Z,93461.31
2022-12-12T04:52:40.263Z,93459.81
2022-12-12T04:55:31.370Z,93464.53
2022-12-12T04:57:58.045Z,93465.09
2022-12-12T05:00:30.603Z,93456.22
2022-12-12T05:03:22.209Z,93456.72
2022-12-12T05:05:54.711Z,93469.56
2022-12-12T05:08:27.844Z,93460.41
2022-12-12T05:10:59.370Z,93468.78
2022-12-12T05:13:36.546Z,93462.75
2022-12-12T05:16:13.299Z,93470.13
2022-12-12T05:18:39.969Z,93469.31
2022-12-12T05:21:06.667Z,93477.75
2022-12-12T05:23:34.904Z,93480.88
2022-12-12T05:26:08.024Z,93481.69
2022-12-12T05:28:36.942Z,93489.81
2022-12-12T05:31:04.194Z,93481.19
2022-12-12T05:33:30.884Z,93485.94
2022-12-12T05:35:57.559Z,93480.97
2022-12-12T05:38:24.248Z,93483.88
2022-12-12T05:40:51.154Z,93473.91
2022-12-12T05:43:18.026Z,93476.53
2022-12-12T05:45:44.784Z,93478.88
2022-12-12T05:48:11.455Z,93470.50
2022-12-12T05:50:38.129Z,93484.13
2022-12-12T05:53:04.863Z,93477.03
2022-12-12T05:55:31.723Z,93482.25
2022-12-12T05:57:58.659Z,93481.41
2022-12-12T06:00:25.323Z,93482.25
2022-12-12T06:02:52.064Z,93473.09
2022-12-12T06:05:20.220Z,93486.19
2022-12-12T06:07:46.997Z,93475.19
2022-12-12T06:10:13.779Z,93491.97
2022-12-12T06:12:40.407Z,93484.41
2022-12-12T06:15:08.761Z,93489.63
2022-12-12T06:17:35.446Z,93491.22
2022-12-12T06:20:03.304Z,93492.53
2022-12-12T06:22:30.053Z,93494.09
2022-12-12T06:24:56.691Z,93486.47
2022-12-12T06:27:23.358Z,93487.28
2022-12-12T06:29:49.989Z,93484.41
2022-12-12T06:32:16.640Z,93486.19
2022-12-12T06:34:43.316Z,93499.56
2022-12-12T06:37:16.921Z,93499.84
2022-12-12T06:39:44.170Z,93501.16
2022-12-12T06:42:10.820Z,93496.41
2022-12-12T06:44:37.471Z,93501.91
2022-12-12T06:47:04.318Z,93497.72
2022-12-12T06:49:30.972Z,93506.56
2022-12-12T06:51:57.623Z,93508.41
2022-12-12T06:54:24.303Z,93500.84
2022-12-12T06:56:50.947Z,93510.00
2022-12-12T06:59:17.717Z,93494.53
2022-12-12T07:01:45.449Z,93513.16
2022-12-12T07:04:13.564Z,93525.47
2022-12-12T07:06:40.539Z,93523.41
2022-12-12T07:09:08.235Z,93530.25
2022-12-12T07:11:34.898Z,93523.94
2022-12-12T07:14:03.845Z,93521.06
2022-12-12T07:16:30.551Z,93524.22
2022-12-12T07:18:57.215Z,93531.06
2022-12-12T07:21:23.939Z,93537.06
2022-12-12T07:23:50.772Z,93526.59
2022-12-12T07:26:21.703Z,93532.41
2022-12-12T07:28:49.140Z,93527.38
2022-12-12T07:31:18.812Z,93525.06
2022-12-12T07:33:46.181Z,93534.25
2022-12-12T07:36:14.941Z,93541.88
2022-12-12T07:38:42.081Z,93535.06
2022-12-12T07:41:11.973Z,93533.50
2022-12-12T07:43:43.739Z,93531.69
2022-12-12T07:46:14.329Z,93539.28
2022-12-12T07:48:41.122Z,93535.38
2022-12-12T07:51:07.775Z,93546.38
2022-12-12T07:53:34.432Z,93539.53
2022-12-12T07:56:03.973Z,93536.13
2022-12-12T07:58:30.603Z,93548.72
2022-12-12T08:00:57.256Z,93550.84
2022-12-12T08:03:23.901Z,93543.00
2022-12-12T08:05:50.583Z,93547.47
2022-12-12T08:08:17.231Z,93531.22
2022-12-12T08:10:43.878Z,93536.72
2022-12-12T08:13:10.540Z,93546.44
2022-12-12T08:15:37.172Z,93547.22
2022-12-12T08:18:03.884Z,93547.09
2022-12-12T08:20:30.499Z,93542.47
2022-12-12T08:22:57.108Z,93535.78
2022-12-12T08:25:23.744Z,93541.13
2022-12-12T08:27:50.407Z,93553.63
2022-12-12T08:30:17.160Z,93543.84
2022-12-12T08:32:43.777Z,93549.28
2022-12-12T08:35:10.640Z,93545.00
2022-12-12T08:37:37.446Z,93554.81
2022-12-12T08:40:04.665Z,93553.22
2022-12-12T08:42:31.346Z,93558.84
2022-12-12T08:44:58.016Z,93561.50
2022-12-12T08:47:24.741Z,93577.34
2022-12-12T08:49:51.392Z,93575.84
2022-12-12T08:52:18.090Z,93573.41
2022-12-12T08:54:44.726Z,93577.69
2022-12-12T08:57:11.470Z,93578.66
2022-12-12T08:59:38.161Z,93583.25
2022-12-12T09:02:04.896Z,93579.84
2022-12-12T09:04:31.910Z,93579.34
2022-12-12T09:07:01.302Z,93583.72
2022-12-12T09:09:30.341Z,93593.47
2022-12-12T09:11:56.984Z,93585.28
2022-12-12T09:14:23.622Z,93592.13
2022-12-12T09:16:50.328Z,93593.56
2022-12-12T09:19:17.247Z,93588.63
2022-12-12T09:21:43.920Z,93596.06
2022-12-12T09:24:10.640Z,93588.16
2022-12-12T09:26:37.291Z,93597.13
2022-12-12T09:29:03.911Z,93598.00
2022-12-12T09:31:30.596Z,93594.94
2022-12-12T09:33:57.232Z,93599.69
2022-12-12T09:36:24.703Z,93601.84
2022-12-12T09:38:51.336Z,93602.72
2022-12-12T09:41:20.793Z,93601.63
2022-12-12T09:44:06.096Z,93596.03
2022-12-12T09:46:41.822Z,93603.72
2022-12-12T09:49:16.192Z,93602.50
2022-12-12T09:51:47.377Z,93603.66
2022-12-12T09:54:20.724Z,93611.84
2022-12-12T09:57:25.146Z,93607.00
2022-12-12T10:00:05.939Z,93601.38
2022-12-12T10:03:00.608Z,93599.16
2022-12-12T10:06:13.820Z,93595.81
2022-12-12T10:08:57.923Z,93589.78
2022-12-12T10:11:50.107Z,93586.91
2022-12-12T10:14:38.750Z,93584.72
2022-12-12T10:17:12.002Z,93586.31
2022-12-12T10:19:51.428Z,93585.66
2022-12-12T10:22:34.831Z,93581.34
2022-12-12T10:25:19.810Z,93575.81
2022-12-12T10:27:46.913Z,93580.56
2022-12-12T10:30:17.775Z,93586.50
2022-12-12T10:33:00.742Z,93570.34
2022-12-12T10:35:38.804Z,93575.59
2022-12-12T10:38:35.881Z,93568.06
2022-12-12T10:41:11.843Z,93584.81
2022-12-12T10:43:51.339Z,93586.75
2022-12-12T10:46:44.712Z,93591.94
2022-12-12T10:49:20.812Z,93582.66
2022-12-12T10:51:49.390Z,93588.34
2022-12-12T10:54:26.132Z,93587.16
2022-12-12T10:57:07.143Z,93586.75
2022-12-12T10:59:49.636Z,93584.91
2022-12-12T11:02:28.300Z,93585.72
2022-12-12T11:05:02.817Z,93583.16
2022-12-12T11:07:32.147Z,93580.03
2022-12-12T11:10:01.851Z,93588.44
2022-12-12T11:12:35.933Z,93585.72
2022-12-12T11:15:13.337Z,93579.81
2022-12-12T11:17:40.869Z,93578.75
2022-12-12T11:20:17.921Z,93586.88
2022-12-12T11:22:44.861Z,93575.03
2022-12-12T11:25:28.541Z,93573.34
2022-12-12T11:28:03.333Z,93572.03
2022-12-12T11:30:39.684Z,93566.50
2022-12-12T11:33:15.756Z,93561.78
2022-12-12T11:35:47.492Z,93564.72
2022-12-12T11:38:31.911Z,93561.75
2022-12-12T11:41:08.428Z,93562.72
2022-12-12T11:43:37.149Z,93550.78
2022-12-12T11:46:03.918Z,93548.63
2022-12-12T11:48:47.335Z,93544.59
2022-12-12T11:51:30.008Z,93545.03
2022-12-12T11:53:56.533Z,93552.94
2022-12-12T11:56:59.153Z,93547.69
2022-12-12T11:59:44.203Z,93543.28
2022-12-12T12:02:49.009Z,93538.06
2022-12-12T12:05:52.380Z,93547.59
2022-12-12T12:08:40.764Z,93546.09
2022-12-12T12:11:14.031Z,93545.44
2022-12-12T12:13:46.738Z,93552.84
2022-12-12T12:16:47.018Z,93547.16
2022-12-12T12:19:51.981Z,93551.28
2022-12-12T12:22:39.832Z,93552.06
2022-12-12T12:25:30.717Z,93545.34
2022-12-12T12:27:57.305Z,93544.28
2022-12-12T12:30:49.060Z,93536.72
2022-12-12T12:33:24.137Z,93546.44
2022-12-12T12:36:05.831Z,93543.78
2022-12-12T12:38:50.998Z,93542.06
2022-12-12T12:41:35.812Z,93544.25
2022-12-12T12:44:11.666Z,93548.38
2022-12-12T12:47:07.708Z,93540.75
2022-12-12T12:49:43.836Z,93542.44
2022-12-12T12:52:19.941Z,93544.34
2022-12-12T12:54:48.871Z,93538.72
2022-12-12T12:57:25.251Z,93544.31
2022-12-12T12:59:57.204Z,93547.72
2022-12-12T13:02:41.331Z,93544.53
2022-12-12T13:05:16.676Z,93538.34
2022-12-12T13:07:52.380Z,93534.69
2022-12-12T13:10:24.896Z,93534.34
2022-12-12T13:13:01.507Z,93542.16
2022-12-12T13:15:36.751Z,93537.91
2022-12-12T13:18:11.639Z,93533.16
2022-12-12T13:20:42.039Z,93539.06
2022-12-12T13:23:27.014Z,93553.84
2022-12-12T13:26:18.843Z,93556.72
2022-12-12T13:29:01.894Z,93551.41
2022-12-12T13:31:40.011Z,93548.28
2022-12-12T13:34:11.911Z,93544.91
2022-12-12T13:36:41.760Z,93550.88
2022-12-12T13:39:23.643Z,93545.94
2022-12-12T13:42:01.731Z,93539.38
2022-12-12T13:44:33.689Z,93550.91
2022-12-12T13:47:00.916Z,93545.97
2022-12-12T13:49:37.920Z,93543.38
2022-12-12T13:52:23.943Z,93550.28
2022-12-12T13:54:54.704Z,93546.97
2022-12-12T13:57:32.084Z,93544.59
2022-12-12T13:59:58.953Z,93548.44
2022-12-12T14:02:33.996Z,93550.31
2022-12-12T14:05:13.656Z,93549.25
2022-12-12T14:07:52.041Z,93548.91
2022-12-12T14:10:23.450Z,93550.63
2022-12-12T14:12:50.436Z,93551.72
2022-12-12T14:15:32.827Z,93559.22
2022-12-12T14:18:01.951Z,93562.44
2022-12-12T14:20:39.538Z,93561.38
2022-12-12T14:23:11.107Z,93552.53
2022-12-12T14:25:39.974Z,93562.50
2022-12-12T14:28:25.627Z,93551.81
2022-12-12T14:31:15.082Z,93563.38
2022-12-12T14:33:53.847Z,93564.47
2022-12-12T14:36:38.785Z,93571.59
2022-12-12T14:39:30.429Z,93566.38
2022-12-12T14:41:58.711Z,93572.69
2022-12-12T14:44:36.148Z,93567.91
2022-12-12T14:47:08.491Z,93562.38
2022-12-12T14:49:35.372Z,93558.16
2022-12-12T14:52:02.680Z,93565.34
2022-12-12T14:54:31.324Z,93558.50
2022-12-12T14:56:59.398Z,93560.06
2022-12-12T14:59:28.369Z,93561.06
2022-12-12T15:01:58.247Z,93563.47
2022-12-12T15:04:37.926Z,93562.69
2022-12-12T15:07:07.068Z,93570.59
2022-12-12T15:09:36.597Z,93568.22
2022-12-12T15:12:13.015Z,93563.50
2022-12-12T15:14:51.959Z,93568.44
2022-12-12T15:17:31.939Z,93562.66
2022-12-12T15:20:01.845Z,93561.13
2022-12-12T15:22:37.423Z,93558.28
2022-12-12T15:25:31.800Z,93562.81
2022-12-12T15:27:59.162Z,93541.06
2022-12-12T15:30:37.429Z,93546.53
2022-12-12T15:33:07.311Z,93533.66
2022-12-12T15:35:34.418Z,93541.28
2022-12-12T15:38:11.811Z,93542.38
2022-12-12T15:40:40.163Z,93547.13
2022-12-12T15:43:14.603Z,93541.59
2022-12-12T15:46:19.771Z,93551.63
2022-12-12T15:48:48.072Z,93550.34
2022-12-12T15:51:21.239Z,93562.94
2022-12-12T15:53:53.351Z,93571.09
2022-12-12T15:56:19.951Z,93575.03
2022-12-12T15:58:49.512Z,93572.94
2022-12-12T16:01:20.485Z,93565.06
2022-12-12T16:04:06.663Z,93572.13
2022-12-12T16:06:38.597Z,93563.47
2022-12-12T16:09:11.211Z,93565.56
2022-12-12T16:11:41.332Z,93563.75
2022-12-12T16:14:35.298Z,93564.00
2022-12-12T16:17:19.637Z,93566.09
2022-12-12T16:20:03.034Z,93567.13
2022-12-12T16:22:35.937Z,93570.53
2022-12-12T16:25:28.684Z,93563.19
2022-12-12T16:27:58.787Z,93581.00
2022-12-12T16:30:26.610Z,93561.34
2022-12-12T16:32:53.516Z,93566.56
2022-12-12T16:35:23.437Z,93575.75
2022-12-12T16:37:52.534Z,93564.97
2022-12-12T16:40:20.924Z,93566.03
2022-12-12T16:42:55.817Z,93575.97
2022-12-12T16:45:22.699Z,93563.13
2022-12-12T16:47:49.588Z,93558.91
2022-12-12T16:50:16.322Z,93568.06
2022-12-12T16:52:43.258Z,93573.28
2022-12-12T16:55:21.224Z,93578.75
2022-12-12T16:57:47.921Z,93585.56
2022-12-12T17:00:15.524Z,93585.84
2022-12-12T17:02:42.768Z,93580.88
2022-12-12T17:05:22.388Z,93582.97
2022-12-12T17:07:51.143Z,93593.94
2022-12-12T17:10:19.366Z,93596.84
2022-12-12T17:12:46.213Z,93598.41
2022-12-12T17:15:17.492Z,93600.00
2022-12-12T17:17:45.335Z,93594.22
2022-12-12T17:20:12.400Z,93604.69
2022-12-12T17:22:39.494Z,93605.16
2022-12-12T17:25:08.304Z,93600.94
2022-12-12T17:27:36.341Z,93600.94
2022-12-12T17:30:04.527Z,93592.28
2022-12-12T17:32:31.268Z,93579.41
2022-12-12T17:34:57.885Z,93583.81
2022-12-12T17:37:24.678Z,93582.03
2022-12-12T17:39:51.307Z,93573.91
2022-12-12T17:42:18.374Z,93572.66
2022-12-12T17:44:45.009Z,93569.22
2022-12-12T17:47:11.709Z,93571.00
2022-12-12T17:49:38.404Z,93573.03
2022-12-12T17:52:05.549Z,93580.84
2022-12-12T17:54:32.465Z,93566.16
2022-12-12T17:56:59.131Z,93570.34
2022-12-12T17:59:25.904Z,93578.72
2022-12-12T18:01:54.652Z,93572.13
2022-12-12T18:04:27.604Z,93581.25
2022-12-12T18:06:54.882Z,93576.00
2022-12-12T18:09:21.595Z,93572.34
2022-12-12T18:11:48.369Z,93575.94
2022-12-12T18:14:16.020Z,93575.31
2022-12-12T18:16:44.696Z,93592.66
2022-12-12T18:19:11.401Z,93590.53
2022-12-12T18:24:29.492Z,93592.59
2022-12-12T18:26:58.481Z,93600.69
2022-12-12T18:29:26.412Z,93592.34
2022-12-12T18:31:53.790Z,93591.84
2022-12-12T18:34:20.809Z,93593.94
2022-12-12T18:36:49.336Z,93593.94
2022-12-12T18:39:16.889Z,93592.13
2022-12-12T18:41:43.864Z,93592.88
2022-12-12T18:44:13.890Z,93594.72
2022-12-12T18:46:43.467Z,93599.41
2022-12-12T18:49:15.563Z,93601.78
2022-12-12T18:51:43.578Z,93596.97
2022-12-12T18:54:15.568Z,93599.22
2022-12-12T18:56:43.192Z,93602.09
2022-12-12T18:59:09.992Z,93586.59
2022-12-12T19:01:38.544Z,93588.19
2022-12-12T19:04:11.674Z,93591.59
2022-12-12T19:06:40.568Z,93596.22
2022-12-12T19:09:11.523Z,93591.22
2022-12-12T19:11:38.823Z,93595.13
2022-12-12T19:14:07.022Z,93592.03
2022-12-12T19:16:34.166Z,93592.50
2022-12-12T19:19:04.953Z,93597.72
2022-12-12T19:21:33.754Z,93585.91
2022-12-12T19:24:02.834Z,93589.81
2022-12-12T19:26:30.533Z,93594.00
2022-12-12T19:29:03.578Z,93588.06
2022-12-12T19:31:33.428Z,93586.38
2022-12-12T19:34:01.189Z,93585.88
2022-12-12T19:36:28.466Z,93581.63
2022-12-12T19:38:58.666Z,93582.75
2022-12-12T19:41:25.765Z,93579.22
2022-12-12T19:43:53.585Z,93570.72
2022-12-12T19:46:26.794Z,93579.88
2022-12-12T19:49:03.836Z,93578.84
2022-12-12T19:51:36.110Z,93575.84
2022-12-12T19:54:18.168Z,93575.22
2022-12-12T19:56:46.000Z,93583.09
2022-12-12T19:59:14.882Z,93581.69
2022-12-12T20:01:42.960Z,93571.44
2022-12-12T20:04:19.844Z,93572.84
2022-12-12T20:06:49.255Z,93575.69
2022-12-12T20:09:24.013Z,93578.53
2022-12-12T20:11:50.984Z,93569.03
2022-12-12T20:14:23.626Z,93576.06
2022-12-12T20:16:51.491Z,93581.28
2022-12-12T20:19:18.730Z,93583.34
2022-12-12T20:22:03.854Z,93585.72
2022-12-12T20:24:33.119Z,93584.69
2022-12-12T20:27:00.729Z,93578.91
2022-12-12T20:29:27.745Z,93571.16
2022-12-12T20:31:54.615Z,93563.75
2022-12-12T20:34:22.612Z,93566.75
2022-12-12T20:36:50.399Z,93573.88
2022-12-12T20:39:22.154Z,93569.44
2022-12-12T20:41:50.343Z,93571.69
2022-12-12T20:44:17.568Z,93567.94
2022-12-12T20:46:46.064Z,93563.69
2022-12-12T20:49:16.021Z,93559.41
2022-12-12T20:51:59.160Z,93562.94
2022-12-12T20:54:28.871Z,93558.75
2022-12-12T20:56:56.575Z,93563.25
2022-12-12T20:59:24.057Z,93561.50
2022-12-12T21:01:51.186Z,93552.44
2022-12-12T21:04:17.908Z,93554.34
2022-12-12T21:06:48.675Z,93567.50
2022-12-12T21:09:22.734Z,93568.25
2022-12-12T21:11:50.481Z,93564.59
2022-12-12T21:14:17.204Z,93562.28
2022-12-12T21:16:43.924Z,93559.06
2022-12-12T21:19:12.847Z,93563.50
2022-12-12T21:21:41.528Z,93563.38
2022-12-12T21:24:09.885Z,93555.31
2022-12-12T21:26:36.530Z,93563.69
2022-12-12T21:29:04.956Z,93563.69
2022-12-12T21:31:35.103Z,93565.16
2022-12-12T21:34:02.191Z,93564.84
2022-12-12T21:36:30.040Z,93558.84
2022-12-12T21:38:58.660Z,93554.47
2022-12-12T21:41:26.113Z,93546.50
2022-12-12T21:43:54.418Z,93550.84
2022-12-12T21:46:24.025Z,93546.84
2022-12-12T21:49:11.638Z,93553.75
2022-12-12T21:51:40.260Z,93542.25
2022-12-12T21:54:08.341Z,93536.59
2022-12-12T21:56:35.536Z,93533.41
2022-12-12T21:59:03.421Z,93533.09
2022-12-12T22:01:32.029Z,93539.66
2022-12-12T22:04:00.016Z,93532.66
2022-12-12T22:06:30.107Z,93536.06
2022-12-12T22:08:59.380Z,93537.63
2022-12-12T22:11:41.580Z,93532.34
2022-12-12T22:14:17.788Z,93536.00
2022-12-12T22:16:44.854Z,93527.88
2022-12-12T22:19:13.644Z,93539.09
2022-12-12T22:21:40.591Z,93543.53
2022-12-12T22:24:07.573Z,93536.69
2022-12-12T22:26:39.935Z,93540.88
2022-12-12T22:29:10.451Z,93540.84
2022-12-12T22:31:38.835Z,93539.81
2022-12-12T22:34:15.753Z,93536.41
2022-12-12T22:36:43.520Z,93541.63
2022-12-12T22:39:19.105Z,93526.75
2022-12-12T22:41:46.523Z,93530.09
2022-12-12T22:44:15.970Z,93525.78
2022-12-12T22:46:44.734Z,93528.38
2022-12-12T22:49:14.678Z,93533.28
2022-12-12T22:51:42.992Z,93526.19
2022-12-12T22:54:10.279Z,93526.66
2022-12-12T22:56:37.676Z,93530.59
2022-12-12T22:59:05.881Z,93522.16
2022-12-12T23:01:33.398Z,93518.47
2022-12-12T23:04:00.314Z,93522.91
2022-12-12T23:06:30.074Z,93518.97
2022-12-12T23:08:58.012Z,93516.06
2022-12-12T23:11:27.401Z,93513.53
2022-12-12T23:13:56.177Z,93504.06
2022-12-12T23:16:27.555Z,93503.50
2022-12-12T23:18:54.721Z,93514.25
2022-12-12T23:21:23.100Z,93507.75
2022-12-12T23:23:50.974Z,93491.31
2022-12-12T23:26:23.652Z,93499.94
2022-12-12T23:28:51.233Z,93501.25
2022-12-12T23:31:30.605Z,93496.28
2022-12-12T23:34:00.671Z,93504.59
2022-12-12T23:36:28.641Z,93498.28
2022-12-12T23:38:57.129Z,93491.97
2022-12-12T23:41:24.437Z,93494.53
2022-12-12T23:43:51.946Z,93484.09
2022-12-12T23:46:34.296Z,93486.66
2022-12-12T23:49:03.471Z,93487.38
2022-12-12T23:51:33.311Z,93481.94
2022-12-12T23:54:02.502Z,93478.28
2022-12-12T23:56:30.267Z,93470.41
2022-12-12T23:58:58.637Z,93467.09
